createdAt,value
2017-05-05T00:01:30.611Z,23.38
2017-05-05T00:03:58.534Z,23.58
2017-05-05T00:06:26.067Z,25.26
2017-05-05T00:08:54.167Z,25.26
2017-05-05T00:11:22.082Z,24.00
2017-05-05T00:13:50.024Z,23.76
2017-05-05T00:16:18.343Z,21.22
2017-05-05T00:18:46.272Z,24.82
2017-05-05T00:21:14.207Z,23.60
2017-05-05T00:23:41.912Z,25.14
2017-05-05T00:26:09.844Z,24.92
2017-05-05T00:28:37.772Z,24.80
2017-05-05T00:31:05.347Z,26.14
2017-05-05T00:33:33.280Z,26.54
2017-05-05T00:36:01.207Z,25.84
2017-05-05T00:38:29.163Z,29.22
2017-05-05T00:40:57.104Z,27.06
2017-05-05T00:43:25.022Z,27.58
2017-05-05T00:45:52.982Z,27.78
2017-05-05T00:48:20.907Z,26.00
2017-05-05T00:50:48.446Z,29.94
2017-05-05T00:53:16.004Z,25.78
2017-05-05T00:55:44.271Z,28.08
2017-05-05T00:58:12.238Z,27.50
2017-05-05T01:00:40.107Z,26.20
2017-05-05T01:03:08.043Z,27.24
2017-05-05T01:05:35.975Z,26.76
2017-05-05T01:08:03.531Z,24.68
2017-05-05T01:10:31.460Z,28.04
2017-05-05T01:12:58.991Z,29.08
2017-05-05T01:15:27.559Z,25.44
2017-05-05T01:17:55.471Z,24.34
2017-05-05T01:20:23.419Z,27.04
2017-05-05T01:22:51.358Z,24.00
2017-05-05T01:25:18.896Z,25.96
2017-05-05T01:27:47.190Z,24.82
2017-05-05T01:30:15.152Z,23.96
2017-05-05T01:32:43.081Z,25.08
2017-05-05T01:35:10.618Z,26.02
2017-05-05T01:37:38.189Z,25.54
2017-05-05T01:40:06.116Z,26.36
2017-05-05T01:42:34.424Z,25.80
2017-05-05T01:45:02.372Z,25.54
2017-05-05T01:47:30.299Z,25.18
2017-05-05T01:49:58.227Z,24.30
2017-05-05T01:52:26.179Z,25.70
2017-05-05T01:54:54.119Z,22.40
2017-05-05T01:57:22.039Z,23.04
2017-05-05T01:59:49.992Z,25.86
2017-05-05T02:02:17.527Z,24.38
2017-05-05T02:04:45.828Z,22.28
2017-05-05T02:07:13.795Z,23.44
2017-05-05T02:09:41.728Z,22.32
2017-05-05T02:12:09.681Z,24.10
2017-05-05T02:14:37.672Z,25.96
2017-05-05T02:17:05.584Z,24.78
2017-05-05T02:19:33.524Z,23.52
2017-05-05T02:22:01.867Z,23.10
2017-05-05T02:24:29.795Z,23.62
2017-05-05T02:26:57.738Z,24.66
2017-05-05T02:29:25.294Z,22.14
2017-05-05T02:31:53.236Z,23.18
2017-05-05T02:34:21.190Z,25.20
2017-05-05T02:36:49.167Z,22.84
2017-05-05T02:39:17.100Z,24.90
2017-05-05T02:41:45.024Z,24.34
2017-05-05T02:44:13.332Z,24.46
2017-05-05T02:46:41.648Z,25.16
2017-05-05T02:49:09.588Z,23.82
2017-05-05T02:51:37.915Z,24.52
2017-05-05T02:54:05.835Z,26.72
2017-05-05T02:56:33.379Z,24.58
2017-05-05T02:59:01.415Z,25.06
2017-05-05T03:01:29.362Z,25.96
2017-05-05T03:03:57.315Z,25.82
2017-05-05T03:06:25.623Z,27.14
2017-05-05T03:08:53.560Z,25.34
2017-05-05T03:11:21.859Z,26.56
2017-05-05T03:13:49.423Z,27.48
2017-05-05T03:16:17.352Z,27.22
2017-05-05T03:18:45.279Z,26.90
2017-05-05T03:21:13.240Z,29.06
2017-05-05T03:23:41.168Z,26.54
2017-05-05T03:26:09.430Z,26.16
2017-05-05T03:28:37.429Z,27.80
2017-05-05T03:31:05.728Z,29.00
2017-05-05T03:33:33.260Z,28.00
2017-05-05T03:36:01.583Z,27.60
2017-05-05T03:38:29.527Z,30.06
2017-05-05T03:40:57.057Z,28.20
2017-05-05T03:43:25.011Z,27.82
2017-05-05T03:45:52.945Z,26.96
2017-05-05T03:48:20.871Z,28.78
2017-05-05T03:50:49.548Z,25.34
2017-05-05T03:53:17.472Z,28.10
2017-05-05T03:55:45.405Z,30.96
2017-05-05T03:58:12.970Z,27.04
2017-05-05T04:00:40.495Z,27.88
2017-05-05T04:03:08.426Z,27.52
2017-05-05T04:05:36.389Z,26.66
2017-05-05T04:08:04.322Z,28.42
2017-05-05T04:10:31.846Z,26.66
2017-05-05T04:12:59.799Z,26.30
2017-05-05T04:15:27.722Z,26.56
2017-05-05T04:17:55.643Z,27.92
2017-05-05T04:20:23.603Z,27.98
2017-05-05T04:22:51.527Z,26.30
2017-05-05T04:25:19.455Z,27.70
2017-05-05T04:27:47.406Z,29.26
2017-05-05T04:30:15.336Z,26.28
2017-05-05T04:32:42.871Z,25.26
2017-05-05T04:35:10.827Z,26.10
2017-05-05T04:37:38.764Z,26.52
2017-05-05T04:40:06.307Z,27.74
2017-05-05T04:42:34.652Z,27.60
2017-05-05T04:45:02.579Z,29.40
2017-05-05T04:47:30.111Z,26.62
2017-05-05T04:49:58.821Z,27.66
2017-05-05T04:52:27.136Z,26.94
2017-05-05T04:54:54.674Z,29.22
2017-05-05T04:57:22.629Z,28.78
2017-05-05T04:59:50.163Z,30.48
2017-05-05T05:02:18.096Z,24.38
2017-05-05T05:04:45.664Z,30.32
2017-05-05T05:07:13.591Z,27.60
2017-05-05T05:09:41.127Z,28.08
2017-05-05T05:12:09.078Z,26.96
2017-05-05T05:14:37.008Z,27.56
2017-05-05T05:17:04.972Z,28.38
2017-05-05T05:19:32.504Z,27.62
2017-05-05T05:22:00.811Z,29.86
2017-05-05T05:24:28.771Z,29.18
2017-05-05T05:26:56.707Z,29.02
2017-05-05T05:29:24.632Z,27.34
2017-05-05T05:31:52.591Z,25.74
2017-05-05T05:34:20.528Z,26.84
2017-05-05T05:36:48.455Z,26.44
2017-05-05T05:39:16.415Z,27.84
2017-05-05T05:41:44.351Z,25.22
2017-05-05T05:44:12.287Z,28.10
2017-05-05T05:46:40.250Z,28.76
2017-05-05T05:49:08.171Z,26.48
2017-05-05T05:51:36.108Z,29.38
2017-05-05T05:54:04.070Z,29.88
2017-05-05T05:56:32.000Z,28.64
2017-05-05T05:58:59.535Z,29.44
2017-05-05T06:01:27.096Z,27.48
2017-05-05T06:03:55.393Z,26.76
2017-05-05T06:06:23.338Z,27.16
2017-05-05T06:08:50.900Z,26.24
2017-05-05T06:11:19.204Z,26.36
2017-05-05T06:13:47.171Z,26.84
2017-05-05T06:16:15.111Z,29.56
2017-05-05T06:18:43.411Z,26.98
2017-05-05T06:21:11.343Z,26.84
2017-05-05T06:23:39.299Z,27.44
2017-05-05T06:26:07.230Z,27.94
2017-05-05T06:28:35.179Z,26.76
2017-05-05T06:31:02.742Z,28.08
2017-05-05T06:33:30.670Z,26.94
2017-05-05T06:35:58.603Z,28.34
2017-05-05T06:38:26.173Z,28.26
2017-05-05T06:40:53.711Z,28.80
2017-05-05T06:43:21.643Z,26.56
2017-05-05T06:45:49.616Z,25.72
2017-05-05T06:48:17.567Z,28.04
2017-05-05T06:50:45.108Z,28.06
2017-05-05T06:53:12.680Z,28.82
2017-05-05T06:55:40.620Z,28.78
2017-05-05T06:58:08.162Z,28.36
2017-05-05T07:00:35.739Z,30.16
2017-05-05T07:03:03.695Z,30.24
2017-05-05T07:05:31.261Z,26.80
2017-05-05T07:07:59.187Z,27.26
2017-05-05T07:10:27.129Z,30.02
2017-05-05T07:12:55.083Z,26.84
2017-05-05T07:15:23.028Z,27.02
2017-05-05T07:17:50.572Z,26.80
2017-05-05T07:20:18.903Z,24.72
2017-05-05T07:22:46.869Z,28.04
2017-05-05T07:25:14.858Z,25.16
2017-05-05T07:27:42.813Z,25.62
2017-05-05T07:30:10.754Z,24.40
2017-05-05T07:32:38.692Z,26.00
2017-05-05T07:35:06.265Z,25.78
2017-05-05T07:37:34.203Z,27.12
2017-05-05T07:40:02.168Z,25.30
2017-05-05T07:42:30.132Z,25.92
2017-05-05T07:44:58.073Z,27.22
2017-05-05T07:47:26.011Z,28.42
2017-05-05T07:49:53.973Z,29.20
2017-05-05T07:52:21.928Z,27.28
2017-05-05T07:54:49.884Z,23.22
2017-05-05T07:57:17.835Z,22.92
2017-05-05T07:59:45.785Z,26.38
2017-05-05T08:02:14.177Z,25.76
2017-05-05T08:04:42.148Z,22.80
2017-05-05T08:07:09.708Z,23.70
2017-05-05T08:09:37.644Z,25.32
2017-05-05T08:12:05.575Z,23.84
2017-05-05T08:14:33.531Z,23.16
2017-05-05T08:17:01.469Z,23.80
2017-05-05T08:19:29.763Z,25.84
2017-05-05T08:21:57.733Z,23.28
2017-05-05T08:24:25.651Z,23.82
2017-05-05T08:26:53.592Z,23.98
2017-05-05T08:29:21.556Z,23.38
2017-05-05T08:31:49.483Z,25.08
2017-05-05T08:34:17.792Z,22.34
2017-05-05T08:36:45.764Z,24.46
2017-05-05T08:39:13.694Z,25.14
2017-05-05T08:41:41.653Z,22.20
2017-05-05T08:44:09.637Z,22.16
2017-05-05T08:46:37.568Z,20.16
2017-05-05T08:49:05.112Z,22.10
2017-05-05T08:51:33.075Z,23.74
2017-05-05T08:54:00.614Z,23.72
2017-05-05T08:56:28.543Z,21.98
2017-05-05T08:58:56.507Z,23.22
2017-05-05T09:01:24.437Z,20.82
2017-05-05T09:03:51.975Z,23.94
2017-05-05T09:06:20.302Z,23.52
2017-05-05T09:08:48.243Z,21.12
2017-05-05T09:11:16.171Z,21.08
2017-05-05T09:13:43.755Z,24.10
2017-05-05T09:16:11.288Z,24.78
2017-05-05T09:18:39.219Z,22.80
2017-05-05T09:21:07.175Z,23.04
2017-05-05T09:23:34.716Z,25.44
2017-05-05T09:26:03.043Z,26.64
2017-05-05T09:28:30.991Z,26.06
2017-05-05T09:30:58.942Z,26.36
2017-05-05T09:33:26.901Z,24.58
2017-05-05T09:35:54.835Z,25.96
2017-05-05T09:38:22.767Z,25.60
2017-05-05T09:40:50.325Z,22.76
2017-05-05T09:43:18.268Z,24.10
2017-05-05T09:45:46.211Z,21.64
2017-05-05T09:48:14.175Z,25.54
2017-05-05T09:50:42.108Z,25.34
2017-05-05T09:53:10.035Z,22.22
2017-05-05T09:55:37.999Z,21.64
2017-05-05T09:58:05.968Z,22.88
2017-05-05T10:00:33.896Z,21.18
2017-05-05T10:03:01.847Z,20.14
2017-05-05T10:05:29.391Z,19.44
2017-05-05T10:07:57.329Z,19.02
2017-05-05T10:10:25.283Z,21.02
2017-05-05T10:12:53.227Z,19.38
2017-05-05T10:15:20.759Z,21.42
2017-05-05T10:17:48.719Z,18.98
2017-05-05T10:20:16.255Z,19.82
2017-05-05T10:22:44.203Z,18.84
2017-05-05T10:25:12.171Z,18.12
2017-05-05T10:27:40.110Z,20.10
2017-05-05T10:30:08.427Z,20.08
2017-05-05T10:32:36.354Z,21.68
2017-05-05T10:35:04.322Z,20.68
2017-05-05T10:37:31.879Z,20.52
2017-05-05T10:39:59.811Z,20.92
2017-05-05T10:42:27.748Z,20.20
2017-05-05T10:44:55.709Z,20.00
2017-05-05T10:47:24.007Z,20.58
2017-05-05T10:49:51.935Z,21.84
2017-05-05T10:52:20.267Z,19.88
2017-05-05T10:54:48.203Z,21.30
2017-05-05T10:57:16.539Z,19.74
2017-05-05T10:59:44.456Z,20.38
2017-05-05T11:02:12.447Z,18.46
2017-05-05T11:04:40.395Z,17.54
2017-05-05T11:07:07.954Z,19.38
2017-05-05T11:09:36.260Z,17.38
2017-05-05T11:12:04.183Z,17.20
2017-05-05T11:14:31.744Z,17.32
2017-05-05T11:16:59.705Z,17.38
2017-05-05T11:19:27.262Z,18.86
2017-05-05T11:21:55.195Z,18.22
2017-05-05T11:24:22.756Z,16.58
2017-05-05T11:26:50.697Z,17.98
2017-05-05T11:29:18.995Z,18.14
2017-05-05T11:31:46.967Z,17.88
2017-05-05T11:34:14.912Z,16.64
2017-05-05T11:36:43.219Z,17.12
2017-05-05T11:39:11.171Z,15.52
2017-05-05T11:41:39.139Z,16.38
2017-05-05T11:44:06.678Z,19.24
2017-05-05T11:46:34.995Z,17.64
2017-05-05T11:49:02.952Z,19.44
2017-05-05T11:51:30.875Z,19.44
2017-05-05T11:53:58.811Z,17.36
2017-05-05T11:56:26.386Z,18.06
2017-05-05T11:58:54.314Z,16.72
2017-05-05T12:01:22.613Z,15.98
2017-05-05T12:03:50.568Z,16.48
2017-05-05T12:06:18.096Z,17.24
2017-05-05T12:08:45.639Z,13.98
2017-05-05T12:11:13.591Z,16.50
2017-05-05T12:16:18.303Z,17.30
2017-05-05T12:18:46.256Z,16.80
2017-05-05T12:21:13.801Z,15.40
2017-05-05T12:23:41.730Z,15.90
2017-05-05T12:26:09.681Z,15.48
2017-05-05T12:28:37.615Z,16.76
2017-05-05T12:31:05.561Z,15.56
2017-05-05T12:33:33.515Z,14.52
2017-05-05T12:36:01.050Z,15.02
2017-05-05T12:38:28.989Z,14.70
2017-05-05T12:40:56.952Z,16.32
2017-05-05T12:43:24.885Z,15.62
2017-05-05T12:45:52.815Z,14.22
2017-05-05T12:48:21.151Z,15.78
2017-05-05T12:50:49.084Z,16.24
2017-05-05T12:53:16.612Z,15.34
2017-05-05T12:55:44.567Z,14.22
2017-05-05T12:58:12.496Z,15.12
2017-05-05T13:00:40.032Z,15.18
2017-05-05T13:03:07.999Z,14.94
2017-05-05T13:05:36.300Z,15.72
2017-05-05T13:08:04.245Z,17.00
2017-05-05T13:10:32.202Z,15.42
2017-05-05T13:12:59.771Z,14.32
2017-05-05T13:15:28.068Z,15.02
2017-05-05T13:17:56.020Z,15.90
2017-05-05T13:20:24.362Z,14.56
2017-05-05T13:22:53.791Z,13.74
2017-05-05T13:25:22.732Z,15.48
2017-05-05T13:27:50.666Z,15.08
2017-05-05T13:30:18.999Z,14.22
2017-05-05T13:32:46.954Z,14.88
2017-05-05T13:35:14.896Z,13.22
2017-05-05T13:37:42.847Z,13.02
2017-05-05T13:40:10.386Z,15.06
2017-05-05T13:42:38.315Z,12.94
2017-05-05T13:45:06.275Z,14.36
2017-05-05T13:47:34.211Z,13.78
2017-05-05T13:50:02.142Z,15.76
2017-05-05T13:52:30.100Z,14.80
2017-05-05T13:54:58.026Z,14.14
2017-05-05T13:57:26.335Z,14.32
2017-05-05T13:59:54.291Z,13.74
2017-05-05T14:02:22.218Z,14.42
2017-05-05T14:04:50.154Z,12.46
2017-05-05T14:07:18.108Z,13.98
2017-05-05T14:09:46.037Z,15.04
2017-05-05T14:12:13.991Z,12.70
2017-05-05T14:14:41.939Z,13.40
2017-05-05T14:17:09.883Z,12.44
2017-05-05T14:19:37.415Z,12.32
2017-05-05T14:22:05.375Z,12.00
2017-05-05T14:24:33.307Z,13.12
2017-05-05T14:27:00.835Z,11.76
2017-05-05T14:29:29.164Z,10.88
2017-05-05T14:31:57.096Z,11.08
2017-05-05T14:34:25.027Z,10.70
2017-05-05T14:36:52.980Z,12.52
2017-05-05T14:39:20.920Z,10.90
2017-05-05T14:41:48.867Z,12.30
2017-05-05T14:44:17.202Z,13.30
2017-05-05T14:46:45.159Z,11.72
2017-05-05T14:49:13.095Z,11.20
2017-05-05T14:51:41.043Z,12.90
2017-05-05T14:54:08.981Z,11.18
2017-05-05T14:56:36.927Z,11.92
2017-05-05T14:59:04.860Z,11.70
2017-05-05T15:01:33.191Z,13.88
2017-05-05T15:04:01.147Z,11.48
2017-05-05T15:06:29.089Z,12.10
2017-05-05T15:08:57.045Z,12.20
2017-05-05T15:11:25.384Z,11.60
2017-05-05T15:13:53.343Z,11.68
2017-05-05T15:16:21.297Z,10.94
2017-05-05T15:18:49.240Z,10.28
2017-05-05T15:21:17.539Z,12.00
2017-05-05T15:23:45.525Z,14.96
2017-05-05T15:26:13.462Z,13.38
2017-05-05T15:28:41.084Z,10.78
2017-05-05T15:31:09.033Z,11.60
2017-05-05T15:33:36.959Z,11.76
2017-05-05T15:36:05.264Z,11.78
2017-05-05T15:38:32.819Z,11.60
2017-05-05T15:41:00.748Z,11.60
2017-05-05T15:43:28.280Z,12.04
2017-05-05T15:45:56.231Z,10.80
2017-05-05T15:48:24.168Z,11.08
2017-05-05T15:50:52.475Z,11.16
2017-05-05T15:53:20.431Z,10.74
2017-05-05T15:55:48.364Z,10.22
2017-05-05T15:58:16.288Z,10.96
2017-05-05T16:00:44.235Z,10.66
2017-05-05T16:03:12.178Z,12.58
2017-05-05T16:05:40.107Z,11.92
2017-05-05T16:08:08.079Z,12.68
2017-05-05T16:10:36.011Z,9.82
2017-05-05T16:13:03.939Z,11.48
2017-05-05T16:15:31.887Z,10.72
2017-05-05T16:17:59.857Z,9.84
2017-05-05T16:20:27.792Z,9.70
2017-05-05T16:22:55.720Z,10.20
2017-05-05T16:25:23.275Z,10.52
2017-05-05T16:27:51.227Z,10.24
2017-05-05T16:30:19.163Z,11.66
2017-05-05T16:32:47.106Z,9.64
2017-05-05T16:35:14.659Z,10.54
2017-05-05T16:37:42.196Z,9.54
2017-05-05T16:40:10.247Z,10.08
2017-05-05T16:42:38.196Z,10.50
2017-05-05T16:45:06.179Z,10.18
2017-05-05T16:47:34.101Z,10.82
2017-05-05T16:50:02.027Z,10.36
2017-05-05T16:52:29.975Z,9.80
2017-05-05T16:54:57.923Z,10.18
2017-05-05T16:57:26.219Z,9.70
2017-05-05T16:59:54.171Z,10.70
2017-05-05T17:02:22.467Z,9.92
2017-05-05T17:04:50.000Z,10.90
2017-05-05T17:07:17.952Z,10.32
2017-05-05T17:09:45.879Z,10.56
2017-05-05T17:12:13.808Z,10.82
2017-05-05T17:14:41.759Z,11.92
2017-05-05T17:17:09.694Z,9.26
2017-05-05T17:19:37.610Z,9.40
2017-05-05T17:22:05.569Z,9.28
2017-05-05T17:24:33.506Z,10.40
2017-05-05T17:27:02.814Z,10.02
2017-05-05T17:29:30.378Z,8.92
2017-05-05T17:31:58.305Z,9.48
2017-05-05T17:34:26.631Z,11.06
2017-05-05T17:36:54.563Z,11.24
2017-05-05T17:39:22.143Z,9.32
2017-05-05T17:41:50.092Z,9.82
2017-05-05T17:44:18.067Z,10.30
2017-05-05T17:46:46.024Z,11.22
2017-05-05T17:49:14.352Z,8.76
2017-05-05T17:51:42.327Z,10.92
2017-05-05T17:54:10.033Z,10.16
2017-05-05T17:56:38.422Z,10.56
2017-05-05T17:59:06.764Z,12.60
2017-05-05T18:01:34.702Z,9.92
2017-05-05T18:04:02.670Z,9.18
2017-05-05T18:06:30.860Z,9.90
2017-05-05T18:08:59.044Z,9.36
2017-05-05T18:11:27.142Z,8.74
2017-05-05T18:13:55.189Z,8.28
2017-05-05T18:16:23.169Z,8.68
2017-05-05T18:18:51.186Z,8.76
2017-05-05T18:21:19.209Z,8.36
2017-05-05T18:23:47.412Z,10.26
2017-05-05T18:26:16.021Z,8.62
2017-05-05T18:28:44.244Z,9.34
2017-05-05T18:31:12.654Z,10.58
2017-05-05T18:33:41.140Z,9.44
2017-05-05T18:36:09.500Z,9.12
2017-05-05T18:38:38.799Z,8.84
2017-05-05T18:41:07.374Z,9.94
2017-05-05T18:43:36.590Z,9.84
2017-05-05T18:46:05.603Z,9.90
2017-05-05T18:48:34.434Z,10.52
2017-05-05T18:51:03.556Z,12.36
2017-05-05T18:53:32.486Z,8.52
2017-05-05T18:56:01.335Z,9.38
2017-05-05T18:58:30.234Z,9.02
2017-05-05T19:00:59.326Z,9.90
2017-05-05T19:03:28.530Z,9.84
2017-05-05T19:05:57.575Z,9.20
2017-05-05T19:08:26.877Z,9.56
2017-05-05T19:10:55.816Z,9.28
2017-05-05T19:13:25.106Z,9.54
2017-05-05T19:15:54.104Z,14.00
2017-05-05T19:18:23.689Z,11.02
2017-05-05T19:20:53.285Z,10.94
2017-05-05T19:23:22.207Z,10.02
2017-05-05T19:25:51.253Z,10.64
2017-05-05T19:28:21.080Z,9.84
2017-05-05T19:30:49.918Z,10.18
2017-05-05T19:33:19.255Z,9.10
2017-05-05T19:35:49.425Z,10.52
2017-05-05T19:38:18.814Z,10.68
2017-05-05T19:40:48.052Z,10.96
2017-05-05T19:43:17.046Z,10.92
2017-05-05T19:45:46.110Z,11.08
2017-05-05T19:48:14.982Z,10.78
2017-05-05T19:50:44.169Z,12.00
2017-05-05T19:53:13.071Z,10.84
2017-05-05T19:55:42.086Z,10.66
2017-05-05T19:58:11.130Z,11.22
2017-05-05T20:00:40.272Z,10.48
2017-05-05T20:03:09.267Z,11.74
2017-05-05T20:05:38.753Z,12.02
2017-05-05T20:08:07.271Z,10.22
2017-05-05T20:10:36.956Z,11.98
2017-05-05T20:13:05.745Z,12.12
2017-05-05T20:15:34.657Z,11.64
2017-05-05T20:18:04.089Z,11.68
2017-05-05T20:20:32.996Z,11.82
2017-05-05T20:23:01.651Z,12.88
2017-05-05T20:25:31.073Z,12.06
2017-05-05T20:27:59.996Z,12.04
2017-05-05T20:30:28.912Z,12.48
2017-05-05T20:33:03.428Z,13.26
2017-05-05T20:35:32.385Z,13.22
2017-05-05T20:38:00.953Z,12.12
2017-05-05T20:40:30.017Z,13.02
2017-05-05T20:42:58.907Z,12.04
2017-05-05T20:45:28.904Z,12.16
2017-05-05T20:47:57.943Z,12.46
2017-05-05T20:50:26.843Z,13.20
2017-05-05T20:52:55.737Z,12.64
2017-05-05T20:55:24.778Z,12.20
2017-05-05T20:57:53.669Z,13.10
2017-05-05T21:00:22.564Z,12.76
2017-05-05T21:02:51.541Z,13.38
2017-05-05T21:05:20.344Z,12.28
2017-05-05T21:07:48.688Z,12.64
2017-05-05T21:10:17.624Z,13.28
2017-05-05T21:12:46.245Z,12.74
2017-05-05T21:15:14.716Z,12.60
2017-05-05T21:17:42.912Z,12.54
2017-05-05T21:20:11.466Z,13.04
2017-05-05T21:22:39.626Z,12.76
2017-05-05T21:25:07.927Z,12.32
2017-05-05T21:27:36.207Z,12.14
2017-05-05T21:30:03.919Z,12.26
2017-05-05T21:32:32.283Z,13.40
2017-05-05T21:35:00.446Z,13.52
2017-05-05T21:37:28.489Z,13.76
2017-05-05T21:39:57.165Z,13.36
2017-05-05T21:42:25.178Z,12.72
2017-05-05T21:44:53.107Z,11.66
2017-05-05T21:47:21.450Z,13.08
2017-05-05T21:49:49.391Z,13.46
2017-05-05T21:52:17.328Z,11.44
2017-05-05T21:54:45.709Z,14.00
2017-05-05T21:57:14.068Z,12.62
2017-05-05T21:59:41.995Z,13.26
2017-05-05T22:02:09.953Z,14.06
2017-05-05T22:04:37.496Z,12.32
2017-05-05T22:07:05.456Z,13.10
2017-05-05T22:09:33.914Z,14.00
2017-05-05T22:12:01.837Z,13.24
2017-05-05T22:14:29.784Z,14.62
2017-05-05T22:16:58.124Z,14.26
2017-05-05T22:19:26.055Z,13.02
2017-05-05T22:21:54.008Z,14.10
2017-05-05T22:24:22.356Z,14.90
2017-05-05T22:26:50.316Z,15.32
2017-05-05T22:29:18.268Z,13.16
2017-05-05T22:31:46.252Z,14.78
2017-05-05T22:34:14.183Z,15.16
2017-05-05T22:36:41.729Z,14.74
2017-05-05T22:39:09.300Z,15.86
2017-05-05T22:41:36.835Z,13.52
2017-05-05T22:44:05.168Z,14.00
2017-05-05T22:46:33.128Z,15.42
2017-05-05T22:49:00.663Z,14.72
2017-05-05T22:51:28.234Z,13.38
2017-05-05T22:53:56.184Z,14.80
2017-05-05T22:56:24.511Z,15.54
2017-05-05T22:58:52.488Z,16.34
2017-05-05T23:01:20.488Z,14.58
2017-05-05T23:03:48.415Z,15.52
2017-05-05T23:06:16.350Z,14.82
2017-05-05T23:08:44.680Z,15.18
2017-05-05T23:11:12.617Z,14.50
2017-05-05T23:13:40.551Z,15.66
2017-05-05T23:16:08.900Z,13.36
2017-05-05T23:18:36.839Z,15.54
2017-05-05T23:21:04.790Z,13.96
2017-05-05T23:23:32.751Z,15.60
2017-05-05T23:26:01.071Z,15.48
2017-05-05T23:28:28.999Z,15.36
2017-05-05T23:30:56.964Z,16.30
2017-05-05T23:33:24.904Z,15.16
2017-05-05T23:35:52.841Z,15.94
2017-05-05T23:38:20.807Z,14.84
2017-05-05T23:40:48.755Z,14.82
2017-05-05T23:43:16.295Z,15.54
2017-05-05T23:45:44.259Z,15.96
2017-05-05T23:48:12.228Z,16.46
2017-05-05T23:50:40.151Z,16.86
2017-05-05T23:53:08.115Z,17.04
2017-05-05T23:55:35.659Z,16.10
2017-05-05T23:58:03.579Z,18.92
